This is the latest recevied weather packets stored in our database for station/object YC0TBU-3. If no packets are shown the sender has not sent any weather packets the latest 10 day(s).
| Time | Temp. | Humidity | Pressure | Rain* | Wind** | Luminosity | Snow |
|---|---|---|---|---|---|---|---|
| 1777566896 | 25° C | 55% | 1016.4 hPa | - | - | - | - |
| 1777566175 | 25.56° C | 55% | 1014.7 hPa | - | - | - | - |
| 1777565449 | 25° C | 56% | 1014.7 hPa | - | - | - | - |
| 1777564744 | 25° C | 56% | 1016.3 hPa | - | - | - | - |
| 1777564039 | 25° C | 55% | 1015.8 hPa | - | - | - | - |
| 1777563333 | 25° C | 55% | 1016.2 hPa | - | - | - | - |
| 1777562629 | 25° C | 56% | 1016.8 hPa | - | - | - | - |
| 1777561924 | 25° C | 57% | 1015.2 hPa | - | - | - | - |
| 1777561219 | 25° C | 58% | 1016.1 hPa | - | - | - | - |
| 1777560513 | 25° C | 56% | 1016.8 hPa | - | - | - | - |
| 1777559809 | 25° C | 55% | 1015.6 hPa | - | - | - | - |
| 1777559103 | 25° C | 55% | 1016 hPa | - | - | - | - |
| 1777558398 | 25° C | 56% | 1016.3 hPa | - | - | - | - |
| 1777557693 | 26.11° C | 53% | 1015.4 hPa | - | - | - | - |
| 1777556988 | 26.11° C | 52% | 1015.5 hPa | - | - | - | - |
| 1777556283 | 25.56° C | 54% | 1015 hPa | - | - | - | - |
| 1777555578 | 26.67° C | 51% | 1014.3 hPa | - | - | - | - |
| 1777554873 | 26.67° C | 51% | 1016.1 hPa | - | - | - | - |
| 1777554168 | 25.56° C | 53% | 1015.3 hPa | - | - | - | - |
| 1777553463 | 25° C | 55% | 1014 hPa | - | - | - | - |
| 1777552758 | 26.11° C | 52% | 1014.6 hPa | - | - | - | - |
| 1777552053 | 25.56° C | 54% | 1016.4 hPa | - | - | - | - |
| 1777551348 | 26.67° C | 50% | 1012.7 hPa | - | - | - | - |
| 1777550643 | 26.67° C | 50% | 1012.7 hPa | - | - | - | - |
| 1777549938 | 26.67° C | 51% | 1012.4 hPa | - | - | - | - |
* Rain since midnight (hover to see other rain measurements)
** Current wind speed in m/s (hover to see current wind gust speed)